createdAt,value
2019-04-07T00:00:30.282Z,1015.44
2019-04-07T00:01:30.580Z,1015.41
2019-04-07T00:02:30.420Z,1015.37
2019-04-07T00:03:30.088Z,1015.37
2019-04-07T00:04:30.641Z,1015.35
2019-04-07T00:05:30.135Z,1015.34
2019-04-07T00:06:30.661Z,1015.33
2019-04-07T00:07:30.184Z,1015.32
2019-04-07T00:08:31.214Z,1015.30
2019-04-07T00:09:30.230Z,1015.29
2019-04-07T00:10:30.429Z,1015.30
2019-04-07T00:11:30.277Z,1015.28
2019-04-07T00:12:31.001Z,1015.27
2019-04-07T00:13:30.963Z,1015.24
2019-04-07T00:14:30.349Z,1015.22
2019-04-07T00:15:30.374Z,1015.26
2019-04-07T00:16:30.923Z,1015.23
2019-04-07T00:17:31.112Z,1015.22
2019-04-07T00:18:30.784Z,1015.27
2019-04-07T00:19:30.679Z,1015.23
2019-04-07T00:20:30.875Z,1015.24
2019-04-07T00:21:30.513Z,1015.20
2019-04-07T00:22:30.536Z,1015.17
2019-04-07T00:23:30.799Z,1015.15
2019-04-07T00:24:30.586Z,1015.16
2019-04-07T00:25:30.607Z,1015.13
2019-04-07T00:26:31.158Z,1015.16
2019-04-07T00:27:30.653Z,1015.18
2019-04-07T00:28:31.260Z,1015.12
2019-04-07T00:29:30.704Z,1015.18
2019-04-07T00:30:30.727Z,1015.12
2019-04-07T00:31:30.747Z,1015.14
2019-04-07T00:32:30.775Z,1015.07
2019-04-07T00:33:31.005Z,1015.08
2019-04-07T00:34:31.100Z,1015.11
2019-04-07T00:35:32.588Z,1015.11
2019-04-07T00:36:30.867Z,1015.06
2019-04-07T00:37:31.170Z,1015.07
2019-04-07T00:38:31.510Z,1015.03
2019-04-07T00:39:31.331Z,1015.01
2019-04-07T00:40:31.015Z,1015.05
2019-04-07T00:41:30.992Z,1015.03
2019-04-07T00:42:31.011Z,1014.99
2019-04-07T00:43:31.703Z,1015.02
2019-04-07T00:44:31.187Z,1014.98
2019-04-07T00:45:31.586Z,1014.98
2019-04-07T00:46:31.101Z,1014.99
2019-04-07T00:47:31.200Z,1014.98
2019-04-07T00:48:31.169Z,1014.94
2019-04-07T00:49:31.187Z,1014.94
2019-04-07T00:50:31.727Z,1014.92
2019-04-07T00:51:31.220Z,1014.97
2019-04-07T00:52:31.245Z,1014.93
2019-04-07T00:53:31.268Z,1014.89
2019-04-07T00:54:31.534Z,1014.89
2019-04-07T00:55:31.315Z,1014.90
2019-04-07T00:56:31.348Z,1014.88
2019-04-07T00:57:31.686Z,1014.84
2019-04-07T00:58:31.861Z,1014.85
2019-04-07T00:59:31.996Z,1014.84
2019-04-07T01:00:31.428Z,1014.80
2019-04-07T01:01:31.753Z,1014.85
2019-04-07T01:02:32.073Z,1014.81
2019-04-07T01:03:31.499Z,1014.78
2019-04-07T01:04:31.889Z,1014.84
2019-04-07T01:05:36.183Z,1014.80
2019-04-07T01:06:31.980Z,1014.77
2019-04-07T01:07:31.607Z,1014.81
2019-04-07T01:08:31.618Z,1014.78
2019-04-07T01:09:32.002Z,1014.77
2019-04-07T01:10:31.667Z,1014.78
2019-04-07T01:11:32.093Z,1014.76
2019-04-07T01:12:31.717Z,1014.78
2019-04-07T01:13:32.001Z,1014.75
2019-04-07T01:14:32.364Z,1014.73
2019-04-07T01:15:31.783Z,1014.72
2019-04-07T01:16:31.807Z,1014.69
2019-04-07T01:17:31.871Z,1014.70
2019-04-07T01:18:31.856Z,1014.71
2019-04-07T01:19:31.875Z,1014.70
2019-04-07T01:20:31.900Z,1014.68
2019-04-07T01:21:32.356Z,1014.65
2019-04-07T01:22:31.952Z,1014.67
2019-04-07T01:23:32.512Z,1014.67
2019-04-07T01:24:31.994Z,1014.60
2019-04-07T01:25:32.028Z,1014.59
2019-04-07T01:26:32.045Z,1014.60
2019-04-07T01:27:32.067Z,1014.61
2019-04-07T01:28:32.723Z,1014.58
2019-04-07T01:29:32.178Z,1014.52
2019-04-07T01:30:32.682Z,1014.58
2019-04-07T01:31:32.158Z,1014.50
2019-04-07T01:32:32.179Z,1014.53
2019-04-07T01:33:32.354Z,1014.52
2019-04-07T01:34:32.230Z,1014.55
2019-04-07T01:35:32.249Z,1014.52
2019-04-07T01:36:32.618Z,1014.53
2019-04-07T01:37:32.296Z,1014.54
2019-04-07T01:38:32.342Z,1014.53
2019-04-07T01:39:32.354Z,1014.50
2019-04-07T01:40:32.368Z,1014.49
2019-04-07T01:41:32.936Z,1014.46
2019-04-07T01:42:32.418Z,1014.43
2019-04-07T01:43:32.705Z,1014.43
2019-04-07T01:44:32.460Z,1014.46
2019-04-07T01:45:32.486Z,1014.44
2019-04-07T01:46:32.698Z,1014.46
2019-04-07T01:47:33.113Z,1014.47
2019-04-07T01:48:32.552Z,1014.43
2019-04-07T01:49:32.578Z,1014.44
2019-04-07T01:50:32.793Z,1014.44
2019-04-07T01:51:33.322Z,1014.44
2019-04-07T01:52:32.825Z,1014.47
2019-04-07T01:53:33.373Z,1014.44
2019-04-07T01:54:33.014Z,1014.43
2019-04-07T01:55:32.718Z,1014.39
2019-04-07T01:56:32.739Z,1014.40
2019-04-07T01:57:33.793Z,1014.39
2019-04-07T01:58:32.907Z,1014.39
2019-04-07T01:59:32.813Z,1014.37
2019-04-07T02:00:32.833Z,1014.34
2019-04-07T02:01:32.857Z,1014.31
2019-04-07T02:02:33.310Z,1014.33
2019-04-07T02:03:32.962Z,1014.33
2019-04-07T02:04:33.421Z,1014.33
2019-04-07T02:05:32.951Z,1014.33
2019-04-07T02:06:33.293Z,1014.30
2019-04-07T02:07:33.749Z,1014.33
2019-04-07T02:08:33.019Z,1014.30
2019-04-07T02:09:33.692Z,1014.31
2019-04-07T02:10:33.069Z,1014.33
2019-04-07T02:11:33.092Z,1014.38
2019-04-07T02:12:33.430Z,1014.28
2019-04-07T02:13:33.779Z,1014.34
2019-04-07T02:14:33.161Z,1014.29
2019-04-07T02:15:33.962Z,1014.36
2019-04-07T02:16:33.204Z,1014.38
2019-04-07T02:17:33.231Z,1014.36
2019-04-07T02:18:33.251Z,1014.37
2019-04-07T02:19:33.783Z,1014.32
2019-04-07T02:20:33.381Z,1014.33
2019-04-07T02:21:33.767Z,1014.34
2019-04-07T02:22:33.347Z,1014.26
2019-04-07T02:23:33.935Z,1014.31
2019-04-07T02:24:33.443Z,1014.32
2019-04-07T02:25:33.415Z,1014.28
2019-04-07T02:26:33.438Z,1014.28
2019-04-07T02:27:33.494Z,1014.31
2019-04-07T02:28:34.127Z,1014.28
2019-04-07T02:29:33.509Z,1014.29
2019-04-07T02:30:33.532Z,1014.29
2019-04-07T02:31:33.554Z,1014.26
2019-04-07T02:32:34.421Z,1014.23
2019-04-07T02:33:33.598Z,1014.22
2019-04-07T02:34:34.077Z,1014.23
2019-04-07T02:35:34.551Z,1014.21
2019-04-07T02:36:33.821Z,1014.19
2019-04-07T02:37:33.692Z,1014.19
2019-04-07T02:38:34.388Z,1014.19
2019-04-07T02:39:34.679Z,1014.19
2019-04-07T02:40:34.300Z,1014.19
2019-04-07T02:41:34.528Z,1014.17
2019-04-07T02:42:34.305Z,1014.13
2019-04-07T02:43:34.130Z,1014.09
2019-04-07T02:44:33.869Z,1014.12
2019-04-07T02:45:34.600Z,1014.12
2019-04-07T02:46:33.901Z,1014.15
2019-04-07T02:47:33.925Z,1014.12
2019-04-07T02:48:34.056Z,1014.12
2019-04-07T02:49:33.975Z,1014.08
2019-04-07T02:50:34.891Z,1014.08
2019-04-07T02:51:34.018Z,1014.12
2019-04-07T02:52:34.041Z,1014.07
2019-04-07T02:53:34.697Z,1014.08
2019-04-07T02:54:34.632Z,1014.06
2019-04-07T02:55:34.113Z,1014.04
2019-04-07T02:56:34.135Z,1014.04
2019-04-07T02:57:34.164Z,1014.01
2019-04-07T02:58:34.202Z,1013.97
2019-04-07T02:59:34.212Z,1013.96
2019-04-07T03:00:34.230Z,1013.95
2019-04-07T03:01:35.082Z,1013.94
2019-04-07T03:02:34.700Z,1013.96
2019-04-07T03:03:34.414Z,1013.94
2019-04-07T03:04:34.322Z,1013.91
2019-04-07T03:05:34.808Z,1014.01
2019-04-07T03:06:44.098Z,1013.93
2019-04-07T03:07:34.605Z,1013.95
2019-04-07T03:08:34.415Z,1013.93
2019-04-07T03:09:34.900Z,1013.90
2019-04-07T03:10:35.108Z,1013.88
2019-04-07T03:11:35.352Z,1013.87
2019-04-07T03:12:34.506Z,1013.86
2019-04-07T03:13:35.079Z,1013.89
2019-04-07T03:14:34.558Z,1013.89
2019-04-07T03:15:34.579Z,1013.90
2019-04-07T03:16:35.487Z,1013.87
2019-04-07T03:17:34.974Z,1013.89
2019-04-07T03:18:35.758Z,1013.89
2019-04-07T03:19:34.672Z,1013.86
2019-04-07T03:20:34.704Z,1013.83
2019-04-07T03:21:35.107Z,1013.84
2019-04-07T03:22:34.746Z,1013.83
2019-04-07T03:23:35.097Z,1013.79
2019-04-07T03:24:34.964Z,1013.77
2019-04-07T03:25:35.642Z,1013.79
2019-04-07T03:26:34.843Z,1013.81
2019-04-07T03:27:34.861Z,1013.78
2019-04-07T03:28:34.886Z,1013.78
2019-04-07T03:29:35.060Z,1013.77
2019-04-07T03:30:37.514Z,1013.81
2019-04-07T03:31:36.473Z,1013.76
2019-04-07T03:32:37.426Z,1013.78
2019-04-07T03:33:38.406Z,1013.73
2019-04-07T03:34:36.296Z,1013.76
2019-04-07T03:35:35.586Z,1013.75
2019-04-07T03:37:02.816Z,1013.72
2019-04-07T03:37:42.958Z,1013.69
2019-04-07T03:38:35.327Z,1013.72
2019-04-07T03:39:35.158Z,1013.70
2019-04-07T03:40:35.530Z,1013.67
2019-04-07T03:41:35.196Z,1013.67
2019-04-07T03:42:35.814Z,1013.72
2019-04-07T03:43:35.839Z,1013.68
2019-04-07T03:44:35.268Z,1013.70
2019-04-07T03:45:35.809Z,1013.68
2019-04-07T03:46:35.313Z,1013.66
2019-04-07T03:47:35.513Z,1013.67
2019-04-07T03:48:35.526Z,1013.65
2019-04-07T03:49:35.382Z,1013.65
2019-04-07T03:50:35.406Z,1013.63
2019-04-07T03:51:36.378Z,1013.63
2019-04-07T03:52:35.602Z,1013.60
2019-04-07T03:53:35.814Z,1013.63
2019-04-07T03:54:36.578Z,1013.59
2019-04-07T03:55:36.397Z,1013.64
2019-04-07T03:56:35.830Z,1013.56
2019-04-07T03:57:36.280Z,1013.60
2019-04-07T03:58:36.338Z,1013.59
2019-04-07T03:59:36.451Z,1013.62
2019-04-07T04:00:35.673Z,1013.58
2019-04-07T04:01:35.844Z,1013.56
2019-04-07T04:02:35.693Z,1013.57
2019-04-07T04:03:36.367Z,1013.58
2019-04-07T04:04:36.199Z,1013.59
2019-04-07T04:05:35.946Z,1013.54
2019-04-07T04:06:35.787Z,1013.57
2019-04-07T04:07:37.129Z,1013.55
2019-04-07T04:08:35.840Z,1013.55
2019-04-07T04:09:38.358Z,1013.51
2019-04-07T04:10:36.449Z,1013.54
2019-04-07T04:11:36.227Z,1013.53
2019-04-07T04:12:35.934Z,1013.52
2019-04-07T04:13:36.011Z,1013.50
2019-04-07T04:14:36.404Z,1013.54
2019-04-07T04:15:36.460Z,1013.51
2019-04-07T04:16:36.104Z,1013.51
2019-04-07T04:17:36.960Z,1013.52
2019-04-07T04:18:36.077Z,1013.52
2019-04-07T04:19:36.238Z,1013.46
2019-04-07T04:20:37.113Z,1013.48
2019-04-07T04:21:36.471Z,1013.49
2019-04-07T04:22:36.175Z,1013.47
2019-04-07T04:23:36.195Z,1013.47
2019-04-07T04:24:36.759Z,1013.50
2019-04-07T04:25:36.295Z,1013.47
2019-04-07T04:26:36.268Z,1013.45
2019-04-07T04:27:36.878Z,1013.45
2019-04-07T04:28:36.852Z,1013.43
2019-04-07T04:29:37.310Z,1013.44
2019-04-07T04:30:37.099Z,1013.46
2019-04-07T04:31:37.104Z,1013.44
2019-04-07T04:32:37.090Z,1013.48
2019-04-07T04:33:36.443Z,1013.37
2019-04-07T04:34:36.767Z,1013.40
2019-04-07T04:35:37.434Z,1013.32
2019-04-07T04:36:36.515Z,1013.35
2019-04-07T04:37:45.061Z,1013.30
2019-04-07T04:38:36.566Z,1013.32
2019-04-07T04:39:37.508Z,1013.29
2019-04-07T04:40:37.532Z,1013.34
2019-04-07T04:41:36.640Z,1013.30
2019-04-07T04:42:37.588Z,1013.35
2019-04-07T04:43:36.691Z,1013.33
2019-04-07T04:44:36.720Z,1013.26
2019-04-07T04:45:36.743Z,1013.29
2019-04-07T04:46:36.871Z,1013.31
2019-04-07T04:47:37.669Z,1013.26
2019-04-07T04:48:36.818Z,1013.35
2019-04-07T04:49:37.159Z,1013.34
2019-04-07T04:50:37.348Z,1013.37
2019-04-07T04:51:39.390Z,1013.36
2019-04-07T04:52:36.934Z,1013.36
2019-04-07T04:53:38.059Z,1013.35
2019-04-07T04:54:36.976Z,1013.29
2019-04-07T04:55:37.307Z,1013.28
2019-04-07T04:56:37.337Z,1013.31
2019-04-07T04:57:37.058Z,1013.33
2019-04-07T04:58:37.907Z,1013.28
2019-04-07T04:59:37.110Z,1013.30
2019-04-07T05:00:37.138Z,1013.32
2019-04-07T05:01:37.855Z,1013.31
2019-04-07T05:02:37.195Z,1013.29
2019-04-07T05:03:37.224Z,1013.31
2019-04-07T05:04:37.447Z,1013.29
2019-04-07T05:05:38.033Z,1013.30
2019-04-07T05:06:37.898Z,1013.24
2019-04-07T05:07:50.241Z,1013.29
2019-04-07T05:08:37.885Z,1013.29
2019-04-07T05:09:44.412Z,1013.30
2019-04-07T05:10:37.568Z,1013.24
2019-04-07T05:11:37.443Z,1013.30
2019-04-07T05:12:37.950Z,1013.28
2019-04-07T05:13:37.508Z,1013.28
2019-04-07T05:14:37.830Z,1013.27
2019-04-07T05:15:37.849Z,1013.21
2019-04-07T05:16:37.596Z,1013.24
2019-04-07T05:17:38.134Z,1013.24
2019-04-07T05:18:38.289Z,1013.22
2019-04-07T05:19:37.675Z,1013.16
2019-04-07T05:20:37.733Z,1013.14
2019-04-07T05:21:37.778Z,1013.17
2019-04-07T05:22:38.046Z,1013.20
2019-04-07T05:23:38.487Z,1013.18
2019-04-07T05:24:37.841Z,1013.13
2019-04-07T05:25:37.871Z,1013.16
2019-04-07T05:26:37.883Z,1013.17
2019-04-07T05:27:38.245Z,1013.18
2019-04-07T05:28:38.099Z,1013.17
2019-04-07T05:29:37.975Z,1013.16
2019-04-07T05:30:38.112Z,1013.17
2019-04-07T05:31:38.713Z,1013.23
2019-04-07T05:32:38.065Z,1013.20
2019-04-07T05:33:38.218Z,1013.19
2019-04-07T05:34:38.136Z,1013.17
2019-04-07T05:35:38.159Z,1013.16
2019-04-07T05:36:38.908Z,1013.09
2019-04-07T05:37:38.485Z,1013.11
2019-04-07T05:38:38.716Z,1013.12
2019-04-07T05:39:38.429Z,1013.14
2019-04-07T05:40:38.314Z,1013.15
2019-04-07T05:41:38.500Z,1013.11
2019-04-07T05:42:38.953Z,1013.11
2019-04-07T05:43:38.414Z,1013.13
2019-04-07T05:44:38.609Z,1013.14
2019-04-07T05:45:38.787Z,1013.08
2019-04-07T05:46:40.385Z,1013.15
2019-04-07T05:47:38.715Z,1013.12
2019-04-07T05:48:39.075Z,1013.08
2019-04-07T05:49:38.925Z,1013.11
2019-04-07T05:50:38.714Z,1013.08
2019-04-07T05:51:39.036Z,1013.06
2019-04-07T05:52:40.012Z,1013.14
2019-04-07T05:53:38.890Z,1013.07
2019-04-07T05:54:39.423Z,1013.05
2019-04-07T05:55:39.337Z,1013.02
2019-04-07T05:56:39.272Z,1013.01
2019-04-07T05:57:38.880Z,1013.02
2019-04-07T05:58:41.141Z,1013.00
2019-04-07T05:59:39.883Z,1013.00
2019-04-07T06:00:39.181Z,1012.99
2019-04-07T06:01:39.186Z,1012.98
2019-04-07T06:02:39.049Z,1012.99
2019-04-07T06:03:42.795Z,1013.02
2019-04-07T06:04:39.403Z,1012.99
2019-04-07T06:05:39.750Z,1013.02
2019-04-07T06:06:41.312Z,1013.04
2019-04-07T06:07:39.221Z,1013.02
2019-04-07T06:08:40.827Z,1013.04
2019-04-07T06:09:39.289Z,1013.05
2019-04-07T06:10:40.246Z,1013.05
2019-04-07T06:11:40.037Z,1013.02
2019-04-07T06:12:42.668Z,1013.02
2019-04-07T06:13:40.044Z,1013.01
2019-04-07T06:14:40.090Z,1012.96
2019-04-07T06:15:40.300Z,1012.98
2019-04-07T06:16:39.534Z,1012.96
2019-04-07T06:17:40.040Z,1012.95
2019-04-07T06:18:39.602Z,1012.92
2019-04-07T06:19:41.271Z,1012.88
2019-04-07T06:20:39.672Z,1012.90
2019-04-07T06:21:39.937Z,1012.90
2019-04-07T06:22:40.449Z,1012.87
2019-04-07T06:23:39.776Z,1012.91
2019-04-07T06:24:40.532Z,1012.86
2019-04-07T06:25:41.988Z,1012.86
2019-04-07T06:26:42.131Z,1012.86
2019-04-07T06:27:40.464Z,1012.85
2019-04-07T06:28:40.436Z,1012.85
2019-04-07T06:29:39.989Z,1012.87
2019-04-07T06:30:40.045Z,1012.92
2019-04-07T06:31:40.271Z,1012.89
2019-04-07T06:32:40.805Z,1012.91
2019-04-07T06:33:40.469Z,1012.86
2019-04-07T06:34:42.927Z,1012.86
2019-04-07T06:35:41.862Z,1012.84
2019-04-07T06:36:40.266Z,1012.83
2019-04-07T06:37:40.707Z,1012.87
2019-04-07T06:38:43.648Z,1012.83
2019-04-07T06:39:40.649Z,1012.83
2019-04-07T06:40:40.548Z,1012.84
2019-04-07T06:41:40.493Z,1012.88
2019-04-07T06:42:40.597Z,1012.85
2019-04-07T06:43:41.212Z,1012.82
2019-04-07T06:44:41.032Z,1012.82
2019-04-07T06:45:40.897Z,1012.85
2019-04-07T06:46:41.243Z,1012.81
2019-04-07T06:47:40.634Z,1012.76
2019-04-07T06:48:41.489Z,1012.80
2019-04-07T06:49:44.692Z,1012.83
2019-04-07T06:50:49.368Z,1012.83
2019-04-07T06:51:40.796Z,1012.80
2019-04-07T06:52:42.070Z,1012.79
2019-04-07T06:53:41.351Z,1012.76
2019-04-07T06:54:41.043Z,1012.72
2019-04-07T06:55:41.663Z,1012.73
2019-04-07T06:56:41.116Z,1012.77
2019-04-07T06:57:41.649Z,1012.77
2019-04-07T06:58:41.828Z,1012.78
2019-04-07T06:59:45.626Z,1012.77
2019-04-07T07:00:41.121Z,1012.77
2019-04-07T07:01:41.168Z,1012.80
2019-04-07T07:02:43.729Z,1012.80
2019-04-07T07:03:41.223Z,1012.77
2019-04-07T07:04:43.576Z,1012.73
2019-04-07T07:05:45.337Z,1012.70
2019-04-07T07:06:42.119Z,1012.74
2019-04-07T07:07:41.441Z,1012.70
2019-04-07T07:08:45.963Z,1012.68
2019-04-07T07:09:41.722Z,1012.69
2019-04-07T07:10:42.165Z,1012.65
2019-04-07T07:11:44.111Z,1012.65
2019-04-07T07:12:42.142Z,1012.64
2019-04-07T07:13:43.943Z,1012.67
2019-04-07T07:14:44.976Z,1012.60
2019-04-07T07:15:41.743Z,1012.63
2019-04-07T07:16:44.432Z,1012.71
2019-04-07T07:17:42.231Z,1012.66
2019-04-07T07:18:41.918Z,1012.57
2019-04-07T07:19:42.317Z,1012.62
2019-04-07T07:20:42.639Z,1012.65
2019-04-07T07:21:42.611Z,1012.64
2019-04-07T07:22:45.595Z,1012.59
2019-04-07T07:23:47.087Z,1012.63
2019-04-07T07:24:42.716Z,1012.58
2019-04-07T07:25:42.111Z,1012.63
2019-04-07T07:26:42.853Z,1012.59
2019-04-07T07:27:43.026Z,1012.61
2019-04-07T07:28:43.942Z,1012.59
2019-04-07T07:29:45.355Z,1012.58
2019-04-07T07:30:42.716Z,1012.59
2019-04-07T07:31:42.628Z,1012.52
2019-04-07T07:32:42.457Z,1012.54
2019-04-07T07:33:43.643Z,1012.54
2019-04-07T07:34:43.308Z,1012.54
2019-04-07T07:35:45.530Z,1012.49
2019-04-07T07:36:42.851Z,1012.56
2019-04-07T07:37:42.522Z,1012.59
2019-04-07T07:38:54.442Z,1012.54
2019-04-07T07:39:45.124Z,1012.58
2019-04-07T07:40:42.662Z,1012.53
2019-04-07T07:41:43.401Z,1012.49
2019-04-07T07:42:43.109Z,1012.56
2019-04-07T07:43:43.558Z,1012.58
2019-04-07T07:44:42.812Z,1012.55
2019-04-07T07:45:46.206Z,1012.53
2019-04-07T07:46:43.197Z,1012.54
2019-04-07T07:47:42.908Z,1012.56
2019-04-07T07:48:42.946Z,1012.49
2019-04-07T07:49:43.790Z,1012.47
2019-04-07T07:50:43.648Z,1012.45
2019-04-07T07:51:45.576Z,1012.49
2019-04-07T07:52:43.170Z,1012.42
2019-04-07T07:53:43.147Z,1012.42
2019-04-07T07:54:45.894Z,1012.44
2019-04-07T07:55:43.217Z,1012.47
2019-04-07T07:56:48.295Z,1012.45
2019-04-07T07:57:43.750Z,1012.49
2019-04-07T07:58:43.959Z,1012.43
2019-04-07T07:59:44.035Z,1012.45
2019-04-07T08:00:43.517Z,1012.47
2019-04-07T08:01:46.217Z,1012.42
2019-04-07T08:02:44.298Z,1012.45
2019-04-07T08:03:44.226Z,1012.46
2019-04-07T08:04:43.635Z,1012.50
2019-04-07T08:05:44.171Z,1012.40
2019-04-07T08:06:43.662Z,1012.40
2019-04-07T08:07:45.701Z,1012.48
2019-04-07T08:08:46.172Z,1012.42
2019-04-07T08:09:44.363Z,1012.41
2019-04-07T08:10:43.802Z,1012.51
2019-04-07T08:11:44.505Z,1012.48
2019-04-07T08:12:43.881Z,1012.47
2019-04-07T08:13:45.873Z,1012.46
2019-04-07T08:14:44.649Z,1012.47
2019-04-07T08:15:44.445Z,1012.53
2019-04-07T08:16:44.637Z,1012.44
2019-04-07T08:17:44.078Z,1012.38
2019-04-07T08:18:45.502Z,1012.38
2019-04-07T08:19:45.156Z,1012.41
2019-04-07T08:20:45.170Z,1012.27
2019-04-07T08:21:45.427Z,1012.28
2019-04-07T08:22:44.957Z,1012.40
2019-04-07T08:23:45.386Z,1012.24
2019-04-07T08:24:44.927Z,1012.35
2019-04-07T08:25:44.416Z,1012.24
2019-04-07T08:26:44.810Z,1012.21
2019-04-07T08:27:45.100Z,1012.32
2019-04-07T08:28:45.029Z,1012.16
2019-04-07T08:29:45.220Z,1012.12
2019-04-07T08:30:47.489Z,1012.15
2019-04-07T08:31:44.903Z,1012.07
2019-04-07T08:32:45.392Z,1012.05
2019-04-07T08:33:44.719Z,1012.11
2019-04-07T08:34:44.934Z,1012.20
2019-04-07T08:35:44.793Z,1012.21
2019-04-07T08:36:46.188Z,1012.19
2019-04-07T08:37:47.104Z,1012.12
2019-04-07T08:38:45.568Z,1012.09
2019-04-07T08:39:44.949Z,1012.02
2019-04-07T08:40:45.576Z,1011.99
2019-04-07T08:41:45.084Z,1011.97
2019-04-07T08:42:48.292Z,1011.91
2019-04-07T08:43:45.275Z,1011.96
2019-04-07T08:44:45.232Z,1011.96
2019-04-07T08:45:45.988Z,1011.90
2019-04-07T08:46:45.395Z,1011.97
2019-04-07T08:47:47.466Z,1011.89
2019-04-07T08:48:45.430Z,1011.92
2019-04-07T08:49:46.003Z,1011.86
2019-04-07T08:50:45.360Z,1011.91
2019-04-07T08:51:45.988Z,1011.91
2019-04-07T08:52:45.639Z,1011.92
2019-04-07T08:53:46.099Z,1011.93
2019-04-07T08:54:48.274Z,1011.92
2019-04-07T08:55:48.588Z,1011.94
2019-04-07T08:56:45.766Z,1011.96
2019-04-07T08:57:45.773Z,1011.93
2019-04-07T08:58:45.793Z,1011.96
2019-04-07T08:59:45.680Z,1011.95
2019-04-07T09:00:48.223Z,1011.99
2019-04-07T09:01:45.754Z,1011.96
2019-04-07T09:02:46.512Z,1012.00
2019-04-07T09:03:45.825Z,1012.10
2019-04-07T09:04:49.772Z,1012.13
2019-04-07T09:05:46.675Z,1012.05
2019-04-07T09:06:45.937Z,1012.02
2019-04-07T09:07:45.975Z,1012.03
2019-04-07T09:08:46.202Z,1011.99
2019-04-07T09:09:47.827Z,1011.96
2019-04-07T09:10:49.238Z,1012.03
2019-04-07T09:11:46.945Z,1012.05
2019-04-07T09:12:46.179Z,1011.97
2019-04-07T09:13:46.537Z,1012.02
2019-04-07T09:14:46.712Z,1011.99
2019-04-07T09:15:48.849Z,1012.03
2019-04-07T09:16:48.074Z,1012.01
2019-04-07T09:17:47.507Z,1012.04
2019-04-07T09:18:52.247Z,1012.12
2019-04-07T09:19:46.939Z,1011.92
2019-04-07T09:20:49.235Z,1012.02
2019-04-07T09:21:49.600Z,1011.95
2019-04-07T09:22:46.491Z,1011.90
2019-04-07T09:23:46.837Z,1011.93
2019-04-07T09:24:47.208Z,1011.91
2019-04-07T09:25:46.790Z,1011.92
2019-04-07T09:26:46.833Z,1011.94
2019-04-07T09:27:48.626Z,1011.85
2019-04-07T09:28:46.700Z,1011.86
2019-04-07T09:29:46.735Z,1011.80
2019-04-07T09:30:47.138Z,1011.78
2019-04-07T09:31:47.627Z,1011.96
2019-04-07T09:32:46.842Z,1011.92
2019-04-07T09:33:48.926Z,1011.85
2019-04-07T09:34:50.598Z,1011.88
2019-04-07T09:35:47.592Z,1011.91
2019-04-07T09:36:49.435Z,1011.92
2019-04-07T09:37:47.164Z,1011.87
2019-04-07T09:38:49.900Z,1011.79
2019-04-07T09:39:57.821Z,1011.95
2019-04-07T09:40:48.470Z,1011.76
2019-04-07T09:41:47.168Z,1011.71
2019-04-07T09:42:47.441Z,1011.70
2019-04-07T09:43:47.242Z,1011.72
2019-04-07T09:44:47.280Z,1011.69
2019-04-07T09:45:47.947Z,1011.75
2019-04-07T09:46:50.264Z,1011.74
2019-04-07T09:47:48.481Z,1011.75
2019-04-07T09:48:50.040Z,1011.73
2019-04-07T09:49:49.183Z,1011.78
2019-04-07T09:50:48.155Z,1011.82
2019-04-07T09:51:47.538Z,1012.02
2019-04-07T09:52:49.134Z,1012.01
2019-04-07T09:53:50.375Z,1011.99
2019-04-07T09:54:51.731Z,1011.98
2019-04-07T09:55:48.942Z,1011.88
2019-04-07T09:56:47.724Z,1011.88
2019-04-07T09:57:50.322Z,1011.82
2019-04-07T09:58:47.831Z,1011.76
2019-04-07T09:59:50.768Z,1011.65
2019-04-07T10:00:50.137Z,1011.63
2019-04-07T10:01:48.597Z,1011.59
2019-04-07T10:02:48.108Z,1011.60
2019-04-07T10:03:47.993Z,1011.60
2019-04-07T10:04:48.041Z,1011.55
2019-04-07T10:05:48.074Z,1011.53
2019-04-07T10:06:49.595Z,1011.46
2019-04-07T10:07:48.842Z,1011.48
2019-04-07T10:08:48.195Z,1011.50
2019-04-07T10:09:48.334Z,1011.47
2019-04-07T10:10:48.337Z,1011.53
2019-04-07T10:11:48.791Z,1011.49
2019-04-07T10:12:48.706Z,1011.44
2019-04-07T10:13:49.560Z,1011.50
2019-04-07T10:14:48.797Z,1011.46
2019-04-07T10:15:48.967Z,1011.50
2019-04-07T10:16:48.525Z,1011.47
2019-04-07T10:17:48.573Z,1011.43
2019-04-07T10:18:49.243Z,1011.47
2019-04-07T10:19:48.971Z,1011.47
2019-04-07T10:20:49.196Z,1011.43
2019-04-07T10:21:48.730Z,1011.41
2019-04-07T10:22:49.154Z,1011.46
2019-04-07T10:23:50.603Z,1011.43
2019-04-07T10:24:49.436Z,1011.46
2019-04-07T10:25:49.542Z,1011.42
2019-04-07T10:26:49.898Z,1011.42
2019-04-07T10:27:49.512Z,1011.43
2019-04-07T10:28:51.598Z,1011.42
2019-04-07T10:29:49.225Z,1011.36
2019-04-07T10:30:49.101Z,1011.42
2019-04-07T10:31:49.444Z,1011.40
2019-04-07T10:32:50.058Z,1011.37
2019-04-07T10:33:49.473Z,1011.41
2019-04-07T10:34:49.820Z,1011.43
2019-04-07T10:35:49.582Z,1011.39
2019-04-07T10:36:49.349Z,1011.43
2019-04-07T10:37:51.339Z,1011.44
2019-04-07T10:38:49.648Z,1011.41
2019-04-07T10:39:49.476Z,1011.41
2019-04-07T10:40:50.353Z,1011.41
2019-04-07T10:41:49.685Z,1011.41
2019-04-07T10:42:50.200Z,1011.36
2019-04-07T10:43:50.349Z,1011.36
2019-04-07T10:44:50.383Z,1011.44
2019-04-07T10:45:50.503Z,1011.34
2019-04-07T10:46:50.418Z,1011.38
2019-04-07T10:47:50.208Z,1011.37
2019-04-07T10:48:49.916Z,1011.31
2019-04-07T10:49:58.646Z,1011.26
2019-04-07T10:50:50.258Z,1011.28
2019-04-07T10:51:49.950Z,1011.25
2019-04-07T10:52:50.339Z,1011.17
2019-04-07T10:53:51.094Z,1011.18
2019-04-07T10:54:50.077Z,1011.15
2019-04-07T10:55:50.824Z,1011.11
2019-04-07T10:56:50.155Z,1011.05
2019-04-07T10:57:50.578Z,1011.07
2019-04-07T10:58:50.239Z,1011.05
2019-04-07T10:59:51.247Z,1011.07
2019-04-07T11:00:50.939Z,1011.07
2019-04-07T11:01:51.173Z,1011.03
2019-04-07T11:02:55.422Z,1011.09
2019-04-07T11:03:53.608Z,1011.06
2019-04-07T11:04:50.871Z,1011.09
2019-04-07T11:05:50.520Z,1011.06
2019-04-07T11:06:50.572Z,1011.08
2019-04-07T11:07:50.600Z,1011.10
2019-04-07T11:08:51.795Z,1011.04
2019-04-07T11:09:50.681Z,1011.06
2019-04-07T11:10:50.836Z,1011.03
2019-04-07T11:11:51.157Z,1011.06
2019-04-07T11:12:51.359Z,1011.09
2019-04-07T11:13:51.663Z,1011.00
2019-04-07T11:14:51.217Z,1011.11
2019-04-07T11:15:51.005Z,1011.11
2019-04-07T11:16:50.958Z,1011.11
2019-04-07T11:17:51.565Z,1010.97
2019-04-07T11:18:51.754Z,1011.04
2019-04-07T11:19:51.354Z,1011.05
2019-04-07T11:20:51.124Z,1010.96
2019-04-07T11:21:51.720Z,1010.97
2019-04-07T11:22:52.041Z,1011.00
2019-04-07T11:23:51.241Z,1010.98
2019-04-07T11:24:51.548Z,1010.99
2019-04-07T11:25:51.373Z,1010.89
2019-04-07T11:26:51.761Z,1010.96
2019-04-07T11:27:51.403Z,1010.94
2019-04-07T11:28:51.443Z,1010.86
2019-04-07T11:29:51.723Z,1010.86
2019-04-07T11:30:52.075Z,1010.93
2019-04-07T11:31:51.629Z,1010.88
2019-04-07T11:32:52.195Z,1010.89
2019-04-07T11:33:52.518Z,1010.88
2019-04-07T11:34:51.684Z,1010.81
2019-04-07T11:35:52.149Z,1010.77
2019-04-07T11:36:51.841Z,1010.78
2019-04-07T11:37:51.821Z,1010.76
2019-04-07T11:38:52.737Z,1010.76
2019-04-07T11:39:52.320Z,1010.66
2019-04-07T11:40:52.468Z,1010.68
2019-04-07T11:41:52.730Z,1010.69
2019-04-07T11:42:52.353Z,1010.68
2019-04-07T11:43:52.049Z,1010.75
2019-04-07T11:44:52.984Z,1010.69
2019-04-07T11:45:58.479Z,1010.68
2019-04-07T11:46:52.956Z,1010.68
2019-04-07T11:47:52.547Z,1010.65
2019-04-07T11:48:52.253Z,1010.66
2019-04-07T11:49:52.287Z,1010.67
2019-04-07T11:50:52.330Z,1010.64
2019-04-07T11:51:52.440Z,1010.60
2019-04-07T11:52:52.685Z,1010.59
2019-04-07T11:53:52.450Z,1010.63
2019-04-07T11:54:52.998Z,1010.58
2019-04-07T11:55:53.214Z,1010.63
2019-04-07T11:56:53.224Z,1010.61
2019-04-07T11:58:06.661Z,1010.65
2019-04-07T11:58:53.087Z,1010.58
2019-04-07T11:59:53.980Z,1010.60
2019-04-07T12:00:53.804Z,1010.56
2019-04-07T12:01:53.053Z,1010.57
2019-04-07T12:02:53.642Z,1010.55
2019-04-07T12:03:54.520Z,1010.48
2019-04-07T12:04:53.412Z,1010.52
2019-04-07T12:05:52.938Z,1010.55